Terminal Aerodrome Forecast
Issued by NWS Twin Cities, MN

Home | Current Version | Previous Version | Graphics & Text | Print | Product List | Glossary On
Versions: 1 2 3 4 5 6 7 8 9 10 11 12 13 14 15 16 17 18 19 20
000
FTUS43 KMPX 221016 AAD
TAFEAU
TAF AMD
KEAU 221016Z 2210/2306 VRB03KT 6SM BR SKC
      TEMPO 2210/2211 1SM BR VV002
     FM221200 07004KT P6SM SKC
     FM221800 25006KT P6SM SKC=

USA.gov is the U.S. government's official web portal to all federal, state and local government web resources and services.